createdAt,value
2023-08-29T00:01:38.819Z,48.43
2023-08-29T00:04:05.729Z,48.16
2023-08-29T00:06:32.683Z,48.09
2023-08-29T00:08:59.364Z,48.67
2023-08-29T00:11:26.210Z,48.37
2023-08-29T00:13:53.787Z,48.83
2023-08-29T00:16:20.703Z,48.84
2023-08-29T00:18:47.448Z,49.07
2023-08-29T00:21:14.169Z,48.84
2023-08-29T00:23:40.861Z,48.68
2023-08-29T00:26:07.733Z,48.79
2023-08-29T00:28:34.474Z,48.89
2023-08-29T00:31:01.354Z,48.91
2023-08-29T00:33:28.106Z,49.13
2023-08-29T00:35:54.871Z,49.17
2023-08-29T00:38:21.590Z,49.35
2023-08-29T00:40:48.400Z,49.49
2023-08-29T00:43:15.173Z,49.24
2023-08-29T00:45:42.145Z,49.57
2023-08-29T00:48:11.930Z,49.93
2023-08-29T00:50:39.154Z,49.48
2023-08-29T00:53:07.066Z,49.61
2023-08-29T00:55:35.267Z,49.67
2023-08-29T00:58:03.429Z,49.91
2023-08-29T01:00:31.537Z,49.73
2023-08-29T01:02:59.124Z,50.04
2023-08-29T01:05:26.193Z,50.09
2023-08-29T01:07:54.386Z,50.51
2023-08-29T01:10:23.584Z,50.29
2023-08-29T01:13:12.265Z,50.81
2023-08-29T01:15:43.344Z,51.02
2023-08-29T01:18:12.896Z,50.86
2023-08-29T01:20:40.809Z,50.97
2023-08-29T01:23:14.859Z,51.12
2023-08-29T01:26:08.357Z,51.53
2023-08-29T01:28:36.905Z,51.26
2023-08-29T01:31:04.801Z,51.59
2023-08-29T01:33:31.718Z,51.77
2023-08-29T01:35:58.458Z,51.55
2023-08-29T01:38:25.327Z,51.98
2023-08-29T01:40:52.172Z,51.74
2023-08-29T01:43:19.183Z,51.67
2023-08-29T01:45:46.003Z,51.96
2023-08-29T01:48:12.894Z,51.83
2023-08-29T01:50:40.804Z,51.82
2023-08-29T01:53:09.279Z,52.06
2023-08-29T01:55:36.862Z,51.87
2023-08-29T01:58:04.991Z,52.18
2023-08-29T02:00:33.020Z,52.68
2023-08-29T02:02:59.741Z,52.76
2023-08-29T02:05:26.571Z,52.88
2023-08-29T02:07:53.328Z,52.99
2023-08-29T02:10:20.254Z,53.04
2023-08-29T02:12:46.969Z,52.75
2023-08-29T02:15:13.721Z,52.95
2023-08-29T02:17:43.038Z,53.35
2023-08-29T02:20:09.970Z,53.57
2023-08-29T02:22:37.709Z,53.48
2023-08-29T02:25:05.852Z,53.93
2023-08-29T02:27:35.611Z,53.86
2023-08-29T02:30:04.416Z,53.98
2023-08-29T02:32:32.208Z,53.90
2023-08-29T02:34:59.013Z,54.34
2023-08-29T02:37:25.740Z,54.45
2023-08-29T02:39:52.485Z,53.84
2023-08-29T02:42:20.874Z,54.20
2023-08-29T02:44:47.559Z,54.23
2023-08-29T02:47:14.512Z,54.36
2023-08-29T02:49:41.295Z,54.07
2023-08-29T02:52:08.059Z,54.46
2023-08-29T02:54:35.366Z,54.83
2023-08-29T02:57:02.067Z,54.80
2023-08-29T02:59:29.118Z,55.01
2023-08-29T03:01:55.833Z,55.14
2023-08-29T03:04:22.610Z,55.32
2023-08-29T03:06:51.822Z,55.06
2023-08-29T03:09:18.785Z,55.21
2023-08-29T03:11:45.535Z,55.12
2023-08-29T03:14:12.465Z,55.33
2023-08-29T03:16:39.253Z,55.65
2023-08-29T03:19:06.259Z,55.85
2023-08-29T03:21:33.131Z,55.80
2023-08-29T03:23:59.888Z,55.78
2023-08-29T03:26:26.624Z,56.06
2023-08-29T03:28:53.392Z,56.04
2023-08-29T03:31:20.434Z,56.08
2023-08-29T03:33:48.042Z,55.77
2023-08-29T03:36:15.391Z,56.24
2023-08-29T03:38:43.348Z,56.20
2023-08-29T03:41:10.523Z,56.07
2023-08-29T03:43:37.469Z,56.15
2023-08-29T03:46:05.412Z,56.25
2023-08-29T03:48:32.967Z,56.14
2023-08-29T03:51:00.080Z,55.99
2023-08-29T03:53:26.908Z,56.06
2023-08-29T03:55:54.049Z,56.18
2023-08-29T03:58:21.118Z,56.10
2023-08-29T04:00:48.019Z,56.01
2023-08-29T04:03:15.027Z,55.84
2023-08-29T04:05:41.884Z,55.66
2023-08-29T04:08:08.904Z,55.39
2023-08-29T04:10:40.219Z,55.29
2023-08-29T04:13:07.509Z,55.77
2023-08-29T04:15:34.959Z,55.53
2023-08-29T04:18:05.421Z,55.54
2023-08-29T04:20:32.634Z,55.33
2023-08-29T04:22:59.541Z,55.41
2023-08-29T04:25:29.615Z,55.59
2023-08-29T04:27:56.842Z,55.80
2023-08-29T04:30:23.606Z,55.55
2023-08-29T04:32:51.696Z,55.33
2023-08-29T04:35:18.993Z,55.46
2023-08-29T04:37:49.883Z,55.71
2023-08-29T04:40:17.626Z,55.59
2023-08-29T04:42:46.268Z,54.95
2023-08-29T04:45:13.964Z,54.76
2023-08-29T04:47:41.401Z,54.23
2023-08-29T04:50:09.222Z,54.29
2023-08-29T04:52:36.131Z,53.90
2023-08-29T04:55:03.063Z,53.76
2023-08-29T04:57:30.764Z,53.42
2023-08-29T04:59:57.462Z,53.50
2023-08-29T05:02:24.403Z,52.90
2023-08-29T05:04:53.684Z,52.67
2023-08-29T05:07:20.636Z,52.06
2023-08-29T05:09:48.263Z,51.58
2023-08-29T05:12:15.220Z,51.66
2023-08-29T05:14:42.103Z,51.95
2023-08-29T05:17:10.382Z,50.96
2023-08-29T05:19:37.286Z,50.90
2023-08-29T05:22:04.328Z,51.29
2023-08-29T05:24:31.170Z,51.11
2023-08-29T05:26:57.938Z,50.77
2023-08-29T05:29:24.708Z,50.89
2023-08-29T05:31:51.574Z,50.88
2023-08-29T05:34:18.284Z,50.50
2023-08-29T05:36:46.721Z,50.71
2023-08-29T05:39:13.423Z,49.80
2023-08-29T05:41:40.239Z,50.10
2023-08-29T05:44:06.949Z,49.94
2023-08-29T05:46:33.684Z,49.99
2023-08-29T05:49:00.917Z,49.63
2023-08-29T05:51:28.042Z,49.61
2023-08-29T05:53:55.174Z,49.77
2023-08-29T05:56:21.953Z,50.35
2023-08-29T05:58:48.751Z,49.07
2023-08-29T06:01:16.249Z,49.24
2023-08-29T06:03:43.723Z,49.10
2023-08-29T06:06:11.001Z,49.37
2023-08-29T06:08:37.810Z,49.28
2023-08-29T06:11:05.066Z,48.65
2023-08-29T06:13:32.488Z,48.74
2023-08-29T06:15:59.304Z,48.24
2023-08-29T06:18:26.114Z,47.58
2023-08-29T06:20:52.993Z,46.53
2023-08-29T06:23:19.949Z,46.28
2023-08-29T06:25:46.737Z,45.75
2023-08-29T06:28:13.610Z,45.98
2023-08-29T06:30:40.524Z,46.21
2023-08-29T06:33:08.100Z,47.05
2023-08-29T06:35:39.526Z,46.57
2023-08-29T06:38:08.750Z,46.71
2023-08-29T06:40:40.858Z,47.28
2023-08-29T06:43:07.675Z,47.79
2023-08-29T06:45:34.499Z,47.41
2023-08-29T06:48:01.360Z,47.27
2023-08-29T06:50:28.133Z,46.71
2023-08-29T06:52:55.044Z,46.72
2023-08-29T06:55:21.797Z,45.23
2023-08-29T06:57:48.655Z,45.23
2023-08-29T07:00:17.863Z,45.26
2023-08-29T07:02:44.789Z,45.49
2023-08-29T07:05:11.589Z,44.67
2023-08-29T07:07:40.062Z,44.20
2023-08-29T07:10:06.940Z,43.95
2023-08-29T07:12:33.925Z,44.86
2023-08-29T07:15:02.142Z,44.71
2023-08-29T07:17:29.324Z,44.06
2023-08-29T07:19:56.340Z,44.60
2023-08-29T07:22:24.698Z,44.00
2023-08-29T07:24:52.135Z,42.83
2023-08-29T07:27:19.192Z,42.31
2023-08-29T07:29:45.994Z,42.35
2023-08-29T07:32:12.750Z,43.05
2023-08-29T07:34:41.279Z,43.08
2023-08-29T07:37:08.616Z,42.47
2023-08-29T07:39:35.874Z,42.25
2023-08-29T07:42:02.906Z,41.60
2023-08-29T07:44:30.741Z,41.44
2023-08-29T07:47:13.583Z,41.70
2023-08-29T07:49:42.290Z,40.66
2023-08-29T07:52:09.391Z,40.42
2023-08-29T07:54:36.452Z,40.22
2023-08-29T07:57:03.289Z,39.87
2023-08-29T07:59:30.116Z,39.51
2023-08-29T08:01:57.314Z,39.11
2023-08-29T08:04:24.316Z,39.20
2023-08-29T08:06:51.212Z,39.27
2023-08-29T08:09:18.064Z,39.22
2023-08-29T08:11:44.918Z,39.31
2023-08-29T08:14:12.605Z,39.38
2023-08-29T08:16:39.547Z,39.67
2023-08-29T08:19:06.704Z,39.51
2023-08-29T08:21:33.584Z,38.36
2023-08-29T08:24:00.658Z,37.74
2023-08-29T08:26:28.073Z,39.52
2023-08-29T08:28:56.218Z,39.80
2023-08-29T08:31:24.865Z,40.19
2023-08-29T08:33:51.683Z,39.81
2023-08-29T08:36:18.492Z,38.69
2023-08-29T08:38:45.188Z,38.63
2023-08-29T08:41:12.604Z,38.33
2023-08-29T08:43:41.776Z,38.46
2023-08-29T08:46:08.925Z,38.30
2023-08-29T08:48:36.823Z,37.99
2023-08-29T08:51:05.412Z,36.56
2023-08-29T08:53:32.744Z,36.09
2023-08-29T08:56:00.602Z,36.36
2023-08-29T08:58:27.624Z,36.64
2023-08-29T09:00:55.282Z,36.09
2023-08-29T09:03:22.275Z,36.50
2023-08-29T09:05:49.187Z,36.51
2023-08-29T09:08:16.224Z,36.61
2023-08-29T09:10:42.988Z,36.49
2023-08-29T09:13:15.994Z,35.54
2023-08-29T09:15:43.013Z,35.05
2023-08-29T09:18:14.671Z,35.54
2023-08-29T09:20:44.221Z,34.12
2023-08-29T09:23:26.973Z,36.31
2023-08-29T09:25:57.508Z,35.89
2023-08-29T09:28:26.945Z,36.63
2023-08-29T09:30:53.844Z,35.44
2023-08-29T09:33:22.734Z,36.52
2023-08-29T09:35:49.898Z,35.98
2023-08-29T09:38:17.501Z,36.00
2023-08-29T09:40:49.985Z,35.74
2023-08-29T09:43:18.216Z,36.39
2023-08-29T09:45:54.629Z,37.01
2023-08-29T09:48:21.657Z,35.98
2023-08-29T09:50:49.206Z,35.80
2023-08-29T09:53:17.417Z,36.14
2023-08-29T09:55:49.484Z,35.78
2023-08-29T09:58:24.939Z,36.35
2023-08-29T10:00:53.034Z,36.12
2023-08-29T10:03:20.574Z,35.76
2023-08-29T10:05:48.323Z,36.13
2023-08-29T10:08:18.252Z,35.73
2023-08-29T10:10:45.125Z,36.27
2023-08-29T10:13:12.616Z,36.43
2023-08-29T10:15:40.763Z,36.86
2023-08-29T10:18:08.904Z,36.52
2023-08-29T10:20:36.593Z,36.38
2023-08-29T10:23:04.351Z,36.83
2023-08-29T10:25:32.094Z,36.63
2023-08-29T10:27:59.162Z,36.08
2023-08-29T10:30:26.793Z,35.44
2023-08-29T10:32:56.726Z,35.04
2023-08-29T10:35:27.228Z,35.72
2023-08-29T10:37:54.154Z,35.26
2023-08-29T10:40:21.544Z,35.37
2023-08-29T10:42:49.334Z,36.47
2023-08-29T10:45:16.256Z,36.55
2023-08-29T10:47:49.285Z,36.69
2023-08-29T10:50:21.310Z,36.67
2023-08-29T10:52:48.545Z,36.42
2023-08-29T10:55:25.391Z,37.08
2023-08-29T10:57:59.699Z,36.91
2023-08-29T11:00:36.566Z,36.79
2023-08-29T11:03:04.189Z,36.88
2023-08-29T11:05:31.284Z,37.33
2023-08-29T11:08:16.940Z,37.16
2023-08-29T11:10:43.819Z,37.25
2023-08-29T11:13:13.299Z,37.73
2023-08-29T11:15:49.157Z,37.39
2023-08-29T11:18:23.263Z,37.52
2023-08-29T11:20:50.309Z,37.69
2023-08-29T11:23:17.050Z,37.45
2023-08-29T11:25:43.798Z,37.87
2023-08-29T11:28:11.229Z,37.92
2023-08-29T11:30:44.163Z,37.83
2023-08-29T11:33:12.109Z,37.46
2023-08-29T11:35:39.316Z,37.57
2023-08-29T11:38:07.434Z,37.53
2023-08-29T11:40:41.430Z,37.96
2023-08-29T11:43:54.807Z,38.79
2023-08-29T11:46:04.759Z,38.03
2023-08-29T11:48:32.495Z,37.63
2023-08-29T11:51:02.387Z,37.87
2023-08-29T11:53:29.901Z,37.31
2023-08-29T11:55:56.850Z,37.40
2023-08-29T11:58:36.612Z,36.64
2023-08-29T12:01:04.737Z,37.01
2023-08-29T12:03:35.188Z,37.04
2023-08-29T12:06:04.791Z,36.98
2023-08-29T12:08:35.812Z,36.98
2023-08-29T12:11:02.759Z,36.30
2023-08-29T12:13:29.529Z,36.69
2023-08-29T12:15:59.370Z,36.07
2023-08-29T12:18:26.883Z,36.36
2023-08-29T12:21:09.391Z,36.32
2023-08-29T12:23:36.201Z,35.84
2023-08-29T12:26:02.988Z,36.39
2023-08-29T12:28:29.835Z,36.58
2023-08-29T12:30:57.924Z,35.81
2023-08-29T12:33:25.029Z,37.00
2023-08-29T12:35:51.844Z,37.56
2023-08-29T12:38:19.444Z,36.95
2023-08-29T12:40:46.569Z,37.25
2023-08-29T12:43:14.260Z,37.23
2023-08-29T12:45:52.672Z,37.77
2023-08-29T12:48:24.125Z,38.77
2023-08-29T12:50:50.830Z,38.61
2023-08-29T12:53:18.125Z,37.97
2023-08-29T12:55:44.944Z,38.00
2023-08-29T12:58:11.874Z,37.76
2023-08-29T13:00:39.391Z,37.92
2023-08-29T13:03:06.955Z,37.75
2023-08-29T13:05:33.776Z,36.61
2023-08-29T13:08:00.563Z,36.75
2023-08-29T13:10:27.410Z,36.28
2023-08-29T13:12:54.250Z,35.95
2023-08-29T13:15:21.185Z,36.12
2023-08-29T13:17:50.749Z,35.51
2023-08-29T13:20:18.154Z,35.89
2023-08-29T13:22:47.283Z,34.91
2023-08-29T13:25:14.167Z,35.10
2023-08-29T13:27:41.135Z,35.23
2023-08-29T13:30:08.194Z,34.35
2023-08-29T13:32:38.011Z,34.17
2023-08-29T13:35:05.681Z,33.67
2023-08-29T13:37:32.901Z,33.51
2023-08-29T13:39:59.982Z,33.95
2023-08-29T13:42:26.822Z,34.53
2023-08-29T13:44:55.692Z,34.77
2023-08-29T13:47:23.419Z,34.34
2023-08-29T13:49:50.180Z,33.97
2023-08-29T13:52:16.935Z,34.15
2023-08-29T13:54:43.643Z,34.90
2023-08-29T13:57:10.564Z,34.32
2023-08-29T13:59:37.326Z,35.06
2023-08-29T14:02:04.266Z,35.38
2023-08-29T14:04:30.977Z,35.33
2023-08-29T14:06:57.902Z,35.94
2023-08-29T14:09:24.708Z,36.07
2023-08-29T14:11:51.569Z,34.75
2023-08-29T14:14:18.466Z,35.72
2023-08-29T14:16:45.403Z,36.15
2023-08-29T14:19:13.971Z,37.27
2023-08-29T14:21:40.758Z,39.63
2023-08-29T14:24:07.816Z,40.88
2023-08-29T14:26:34.548Z,42.03
2023-08-29T14:29:01.384Z,43.59
2023-08-29T14:31:28.109Z,43.38
2023-08-29T14:33:54.973Z,41.83
2023-08-29T14:36:21.892Z,40.97
2023-08-29T14:38:48.652Z,40.32
2023-08-29T14:41:15.377Z,40.62
2023-08-29T14:43:42.391Z,39.45
2023-08-29T14:46:09.353Z,38.27
2023-08-29T14:48:36.729Z,38.05
2023-08-29T14:51:03.839Z,36.93
2023-08-29T14:53:30.640Z,37.36
2023-08-29T14:55:57.462Z,37.73
2023-08-29T14:58:25.700Z,37.20
2023-08-29T15:00:52.514Z,37.63
2023-08-29T15:03:19.597Z,39.00
2023-08-29T15:05:46.413Z,37.95
2023-08-29T15:08:13.299Z,38.04
2023-08-29T15:10:39.976Z,38.96
2023-08-29T15:13:06.812Z,38.38
2023-08-29T15:15:36.732Z,38.10
2023-08-29T15:18:03.716Z,37.54
2023-08-29T15:20:31.304Z,38.24
2023-08-29T15:22:58.117Z,37.85
2023-08-29T15:25:24.899Z,38.04
2023-08-29T15:27:51.733Z,38.42
2023-08-29T15:30:18.508Z,38.77
2023-08-29T15:32:46.917Z,38.12
2023-08-29T15:35:13.831Z,37.66
2023-08-29T15:37:40.532Z,37.61
2023-08-29T15:40:08.211Z,38.48
2023-08-29T15:42:35.125Z,37.34
2023-08-29T15:45:01.920Z,37.74
2023-08-29T15:47:28.787Z,38.06
2023-08-29T15:49:55.568Z,38.55
2023-08-29T15:52:22.382Z,37.96
2023-08-29T15:54:49.541Z,41.04
2023-08-29T15:57:17.067Z,42.49
2023-08-29T15:59:43.952Z,44.49
2023-08-29T16:02:13.825Z,44.07
2023-08-29T16:04:43.877Z,44.77
2023-08-29T16:07:10.754Z,45.97
2023-08-29T16:09:37.555Z,45.85
2023-08-29T16:12:04.646Z,46.96
2023-08-29T16:14:31.401Z,45.46
2023-08-29T16:16:58.482Z,44.84
2023-08-29T16:19:25.576Z,45.51
2023-08-29T16:21:52.344Z,46.82
2023-08-29T16:24:19.290Z,44.34
2023-08-29T16:26:46.445Z,45.78
2023-08-29T16:29:13.482Z,46.60
2023-08-29T16:31:42.013Z,46.86
2023-08-29T16:34:08.817Z,47.59
2023-08-29T16:36:35.613Z,48.35
2023-08-29T16:39:03.283Z,48.51
2023-08-29T16:41:30.234Z,49.34
2023-08-29T16:43:56.988Z,49.13
2023-08-29T16:46:23.690Z,47.88
2023-08-29T16:48:50.580Z,48.81
2023-08-29T16:51:17.707Z,48.19
2023-08-29T16:53:44.817Z,48.67
2023-08-29T16:56:11.622Z,48.38
2023-08-29T16:58:38.368Z,49.18
2023-08-29T17:01:05.213Z,49.44
2023-08-29T17:03:32.143Z,48.99
2023-08-29T17:05:59.133Z,49.74
2023-08-29T17:08:25.923Z,49.84
2023-08-29T17:10:53.197Z,51.21
2023-08-29T17:13:20.085Z,49.64
2023-08-29T17:15:46.943Z,50.49
2023-08-29T17:18:13.664Z,50.35
2023-08-29T17:20:40.459Z,50.00
2023-08-29T17:23:07.225Z,49.51
2023-08-29T17:25:34.189Z,49.77
2023-08-29T17:28:00.930Z,49.49
2023-08-29T17:30:27.852Z,49.96
2023-08-29T17:32:54.752Z,49.29
2023-08-29T17:35:21.496Z,49.92
2023-08-29T17:37:48.362Z,50.11
2023-08-29T17:40:15.163Z,49.55
2023-08-29T17:42:43.701Z,49.96
2023-08-29T17:45:11.155Z,50.43
2023-08-29T17:47:37.996Z,50.03
2023-08-29T17:50:08.226Z,50.44
2023-08-29T17:52:35.324Z,50.63
2023-08-29T17:55:03.145Z,50.64
2023-08-29T17:57:30.611Z,51.25
2023-08-29T17:59:58.435Z,51.62
2023-08-29T18:02:26.135Z,53.19
2023-08-29T18:04:53.039Z,57.95
2023-08-29T18:07:21.268Z,57.42
2023-08-29T18:10:06.499Z,58.79
2023-08-29T18:12:33.661Z,62.76
2023-08-29T18:15:00.804Z,63.13
2023-08-29T18:17:27.832Z,63.69
2023-08-29T18:19:56.544Z,65.18
2023-08-29T18:22:24.456Z,66.17
2023-08-29T18:24:51.596Z,65.18
2023-08-29T18:27:18.797Z,65.64
2023-08-29T18:29:46.825Z,65.27
2023-08-29T18:32:14.105Z,65.84
2023-08-29T18:34:40.861Z,67.06
2023-08-29T18:37:10.589Z,66.09
2023-08-29T18:39:38.486Z,66.86
2023-08-29T18:42:06.171Z,65.95
2023-08-29T18:44:35.179Z,66.04
2023-08-29T18:47:01.942Z,65.24
2023-08-29T18:49:29.488Z,65.72
2023-08-29T18:51:56.315Z,65.51
2023-08-29T18:54:23.117Z,64.18
2023-08-29T18:56:50.324Z,63.27
2023-08-29T18:59:17.145Z,63.80
2023-08-29T19:01:43.836Z,63.23
2023-08-29T19:04:10.527Z,62.66
2023-08-29T19:06:37.790Z,63.41
2023-08-29T19:09:04.904Z,63.87
2023-08-29T19:11:31.735Z,63.44
2023-08-29T19:13:58.517Z,63.19
2023-08-29T19:16:26.077Z,63.18
2023-08-29T19:18:53.015Z,63.10
2023-08-29T19:21:19.772Z,63.85
2023-08-29T19:23:46.521Z,63.88
2023-08-29T19:26:13.747Z,64.09
2023-08-29T19:28:40.590Z,64.13
2023-08-29T19:31:07.456Z,64.58
2023-08-29T19:33:34.232Z,63.84
2023-08-29T19:36:17.492Z,63.96
2023-08-29T19:38:44.978Z,63.75
2023-08-29T19:41:13.034Z,63.65
2023-08-29T19:43:40.047Z,63.89
2023-08-29T19:46:06.846Z,62.77
2023-08-29T19:48:33.928Z,63.05
2023-08-29T19:51:00.966Z,62.54
2023-08-29T19:53:27.806Z,63.52
2023-08-29T19:55:54.973Z,62.90
2023-08-29T19:58:24.876Z,62.28
2023-08-29T20:00:52.548Z,61.57
2023-08-29T20:03:19.742Z,61.06
2023-08-29T20:05:46.657Z,60.87
2023-08-29T20:08:16.056Z,60.87
2023-08-29T20:10:44.220Z,60.84
2023-08-29T20:13:11.115Z,60.69
2023-08-29T20:15:44.551Z,60.52
2023-08-29T20:18:12.656Z,60.61
2023-08-29T20:20:40.284Z,60.54
2023-08-29T20:23:07.620Z,60.99
2023-08-29T20:25:34.282Z,61.55
2023-08-29T20:28:01.912Z,61.11
2023-08-29T20:30:28.853Z,61.72
2023-08-29T20:32:55.902Z,62.36
2023-08-29T20:35:22.837Z,62.43
2023-08-29T20:37:49.518Z,62.25
2023-08-29T20:40:16.363Z,62.25
2023-08-29T20:42:43.323Z,62.79
2023-08-29T20:45:12.001Z,62.60
2023-08-29T20:47:39.429Z,63.12
2023-08-29T20:50:06.429Z,63.20
2023-08-29T20:52:33.182Z,62.75
2023-08-29T20:55:00.186Z,61.91
2023-08-29T20:57:26.881Z,61.94
2023-08-29T20:59:53.727Z,62.00
2023-08-29T21:02:22.752Z,61.74
2023-08-29T21:04:50.200Z,61.46
2023-08-29T21:07:17.157Z,61.50
2023-08-29T21:09:43.933Z,61.32
2023-08-29T21:12:10.729Z,61.02
2023-08-29T21:14:37.609Z,61.37
2023-08-29T21:17:04.804Z,60.25
2023-08-29T21:19:31.634Z,59.90
2023-08-29T21:21:58.468Z,60.91
2023-08-29T21:24:25.203Z,60.33
2023-08-29T21:26:51.998Z,60.93
2023-08-29T21:29:18.704Z,60.83
2023-08-29T21:31:45.597Z,60.62
2023-08-29T21:34:12.419Z,59.84
2023-08-29T21:36:39.618Z,59.99
2023-08-29T21:39:08.512Z,60.33
2023-08-29T21:41:35.362Z,60.90
2023-08-29T21:44:02.090Z,60.91
2023-08-29T21:46:28.924Z,60.20
2023-08-29T21:48:55.682Z,60.35
2023-08-29T21:51:24.020Z,61.33
2023-08-29T21:53:51.183Z,60.94
2023-08-29T21:56:20.023Z,60.69
2023-08-29T21:58:46.832Z,60.57
2023-08-29T22:01:13.733Z,61.69
2023-08-29T22:03:40.530Z,63.67
2023-08-29T22:06:07.468Z,64.94
2023-08-29T22:08:34.861Z,65.59
2023-08-29T22:11:02.907Z,67.56
2023-08-29T22:13:29.640Z,68.10
2023-08-29T22:15:56.579Z,69.91
2023-08-29T22:18:25.381Z,70.60
2023-08-29T22:20:52.255Z,73.69
2023-08-29T22:23:19.229Z,76.07
2023-08-29T22:25:46.113Z,77.14
2023-08-29T22:28:12.864Z,77.33
2023-08-29T22:30:39.753Z,74.64
2023-08-29T22:33:06.830Z,75.50
2023-08-29T22:35:33.618Z,76.66
2023-08-29T22:38:00.487Z,78.85
2023-08-29T22:40:27.309Z,76.64
2023-08-29T22:42:54.125Z,78.00
2023-08-29T22:45:20.913Z,79.23
2023-08-29T22:47:50.098Z,81.39
2023-08-29T22:50:16.980Z,84.38
2023-08-29T22:52:43.754Z,84.56
2023-08-29T22:55:10.547Z,85.33
2023-08-29T22:57:37.300Z,83.61
2023-08-29T23:00:05.637Z,85.70
2023-08-29T23:02:32.562Z,83.93
2023-08-29T23:04:59.290Z,83.49
2023-08-29T23:07:26.001Z,85.12
2023-08-29T23:09:52.751Z,84.31
2023-08-29T23:12:20.225Z,84.77
2023-08-29T23:14:47.007Z,86.45
2023-08-29T23:17:13.797Z,87.51
2023-08-29T23:19:44.977Z,85.96
2023-08-29T23:22:11.793Z,86.05
2023-08-29T23:24:38.844Z,86.79
2023-08-29T23:27:07.186Z,85.90
2023-08-29T23:29:34.091Z,86.44
2023-08-29T23:32:00.775Z,84.79
2023-08-29T23:34:27.586Z,84.10
2023-08-29T23:36:54.375Z,83.57
2023-08-29T23:39:21.191Z,86.71
2023-08-29T23:41:49.011Z,85.09
2023-08-29T23:44:15.841Z,85.48
2023-08-29T23:46:42.696Z,84.38
2023-08-29T23:49:09.459Z,84.25
2023-08-29T23:51:36.222Z,85.74
2023-08-29T23:54:02.999Z,84.70
2023-08-29T23:56:29.808Z,85.67
2023-08-29T23:58:56.550Z,85.12
